Latest Weather Observations for Little Bay

IDN60801

Issued at 3:52 pm EDT Tuesday 18 January 2022 (issued every 10 minutes, with the page automatically refreshed every 10 minutes)

About weather observations | Map of weather stations | Latest weather observations for NSW | Other Formats
Station Details ID: 066051 Name: LITTLE BAY (THE COAST GOLF CLUB) Lat: -33.98 Lon: 151.25 Height: 22.0 m
Data from the previous 72 hours. | See also: Recent months at Little Bay
Date/Time
EDT
Temp
°C
App
Temp
°C
Dew
Point
°C
Rel
Hum
%
Delta-T
°C
Wind Press
QNH
hPa
Press
MSL
hPa
Rain since
9am
mm
Dir  Spd
km/h
Gust
km/h
Spd
kts
Gust
kts
18/03:30pm - - - - - SSW 24 32 13 17 - - -
18/03:00pm - - - - - SSW 24 35 13 19 - - -
18/02:30pm - - - - - SSW 26 39 14 21 - - -
18/02:00pm - - - - - SSW 26 35 14 19 - - -
18/01:30pm - - - - - SSW 24 37 13 20 - - -
18/01:00pm - - - - - SSW 24 35 13 19 - - -
18/12:30pm - - - - - SSW 26 35 14 19 - - -
18/12:00pm - - - - - SSW 24 33 13 18 - - -
18/11:30am - - - - - SSW 22 33 12 18 - - -
18/11:00am - - - - - SSW 20 35 11 19 - - -
18/10:30am - - - - - SSW 24 35 13 19 - - -
18/10:00am - - - - - SSW 28 37 15 20 - - -
18/09:30am - - - - - SSW 26 41 14 22 - - -
18/09:00am - - - - - SSW 26 41 14 22 - - -
18/08:30am - - - - - SSW 28 41 15 22 - - -
18/08:00am - - - - - SSW 26 39 14 21 - - -
18/07:30am - - - - - SSW 28 41 15 22 - - -
18/07:00am - - - - - SSW 26 39 14 21 - - -
18/06:30am - - - - - S 30 39 16 21 - - -
18/06:00am - - - - - S 30 39 16 21 - - -
18/05:30am - - - - - S 26 35 14 19 - - -
18/05:00am - - - - - SSW 19 30 10 16 - - -
18/04:30am - - - - - SW 13 17 7 9 - - -
18/04:00am - - - - - SW 9 13 5 7 - - -
18/03:30am - - - - - SW 7 11 4 6 - - -
18/03:00am - - - - - WSW 7 11 4 6 - - -
18/02:30am - - - - - WSW 9 11 5 6 - - -
18/02:00am - - - - - W 7 9 4 5 - - -
18/01:30am - - - - - CALM 0 0 0 0 - - -
18/01:00am - - - - - CALM 0 0 0 0 - - -
18/12:30am - - - - - CALM 0 0 0 0 - - -
18/12:00am - - - - - N 7 9 4 5 - - -
 
Date/Time
EDT
Temp
°C
App
Temp
°C
Dew
Point
°C
Rel
Hum
%
Delta-T
°C
Wind Press
QNH
hPa
Press
MSL
hPa
Rain since
9am
mm
Dir  Spd
km/h
Gust
km/h
Spd
kts
Gust
kts
17/11:30pm - - - - - N 4 7 2 4 - - -
17/11:00pm - - - - - N 4 6 2 3 - - -
17/10:30pm - - - - - NNE 6 7 3 4 - - -
17/10:00pm - - - - - NNE 4 6 2 3 - - -
17/09:30pm - - - - - N 6 9 3 5 - - -
17/09:00pm - - - - - N 9 17 5 9 - - -
17/08:30pm - - - - - N 13 22 7 12 - - -
17/08:00pm - - - - - N 11 15 6 8 - - -
17/07:30pm - - - - - N 13 20 7 11 - - -
17/07:00pm - - - - - NNE 13 20 7 11 - - -
17/06:30pm - - - - - NNE 15 22 8 12 - - -
17/06:00pm - - - - - NNE 19 24 10 13 - - -
17/05:30pm - - - - - NNE 17 26 9 14 - - -
17/05:00pm - - - - - NE 17 22 9 12 - - -
17/04:30pm - - - - - NE 17 20 9 11 - - -
17/04:00pm - - - - - NE 13 17 7 9 - - -
17/03:30pm - - - - - NE 17 20 9 11 - - -
17/03:00pm - - - - - NE 13 19 7 10 - - -
17/02:30pm - - - - - NE 19 24 10 13 - - -
17/02:00pm - - - - - NE 17 22 9 12 - - -
17/01:30pm - - - - - NE 17 22 9 12 - - -
17/01:00pm - - - - - NE 15 19 8 10 - - -
17/12:30pm - - - - - NE 15 19 8 10 - - -
17/12:00pm - - - - - NE 17 20 9 11 - - -
17/11:30am - - - - - NE 15 20 8 11 - - -
17/11:00am - - - - - NE 11 17 6 9 - - -
17/10:30am - - - - - ENE 7 11 4 6 - - -
17/10:00am - - - - - E 7 9 4 5 - - -
17/09:30am - - - - - ENE 4 6 2 3 - - -
17/09:00am - - - - - ENE 6 7 3 4 - - -
17/08:30am - - - - - ENE 4 4 2 2 - - -
17/08:00am - - - - - E 2 6 1 3 - - -
17/07:30am - - - - - CALM 0 0 0 0 - - -
17/07:00am - - - - - CALM 0 0 0 0 - - -
17/06:30am - - - - - ENE 2 2 1 1 - - -
17/06:00am - - - - - CALM 0 0 0 0 - - -
17/05:30am - - - - - WSW 4 6 2 3 - - -
17/05:00am - - - - - WSW 4 6 2 3 - - -
17/04:30am - - - - - W 6 7 3 4 - - -
17/04:00am - - - - - W 6 9 3 5 - - -
17/03:30am - - - - - CALM 0 2 0 1 - - -
17/03:00am - - - - - WSW 6 7 3 4 - - -
17/02:30am - - - - - WSW 11 15 6 8 - - -
17/02:00am - - - - - WSW 7 11 4 6 - - -
17/01:30am - - - - - WSW 9 13 5 7 - - -
17/01:00am - - - - - WSW 9 13 5 7 - - -
17/12:30am - - - - - SW 9 13 5 7 - - -
17/12:00am - - - - - SW 9 15 5 8 - - -
 
Date/Time
EDT
Temp
°C
App
Temp
°C
Dew
Point
°C
Rel
Hum
%
Delta-T
°C
Wind Press
QNH
hPa
Press
MSL
hPa
Rain since
9am
mm
Dir  Spd
km/h
Gust
km/h
Spd
kts
Gust
kts
16/11:30pm - - - - - SW 11 17 6 9 - - -
16/11:00pm - - - - - SSW 9 13 5 7 - - -
16/10:30pm - - - - - SSW 9 13 5 7 - - -
16/10:00pm - - - - - SSW 9 13 5 7 - - -
16/09:30pm - - - - - SSW 11 17 6 9 - - -
16/09:00pm - - - - - SSW 11 15 6 8 - - -
16/08:30pm - - - - - SSW 9 13 5 7 - - -
16/08:00pm - - - - - SSW 9 13 5 7 - - -
16/07:30pm - - - - - S 9 15 5 8 - - -
16/07:00pm - - - - - S 11 15 6 8 - - -
16/06:30pm - - - - - SSE 15 19 8 10 - - -
16/06:00pm - - - - - SSE 17 20 9 11 - - -
16/05:30pm - - - - - SSE 17 20 9 11 - - -
16/05:00pm - - - - - SSE 19 24 10 13 - - -
16/04:30pm - - - - - S 20 28 11 15 - - -
16/04:00pm - - - - - S 19 26 10 14 - - -
16/03:30pm - - - - - SSW 22 28 12 15 - - -
16/03:00pm - - - - - S 20 30 11 16 - - -
16/02:30pm - - - - - SSW 22 32 12 17 - - -
16/02:00pm - - - - - SSW 26 33 14 18 - - -
16/01:30pm - - - - - SSW 24 33 13 18 - - -
16/01:00pm - - - - - SSW 24 35 13 19 - - -
16/12:30pm - - - - - S 24 32 13 17 - - -
16/12:00pm - - - - - SSW 26 35 14 19 - - -
16/11:30am - - - - - SSW 22 32 12 17 - - -
16/11:00am - - - - - SSW 24 32 13 17 - - -
16/10:30am - - - - - SSW 24 33 13 18 - - -
16/10:00am - - - - - SSW 22 35 12 19 - - -
16/09:30am - - - - - SSW 24 33 13 18 - - -
16/09:00am - - - - - SSW 24 33 13 18 - - -
16/08:30am - - - - - SSW 24 37 13 20 - - -
16/08:00am - - - - - SSW 22 32 12 17 - - -
16/07:30am - - - - - SSW 24 33 13 18 - - -
16/07:00am - - - - - SSW 24 32 13 17 - - -
16/06:30am - - - - - SSW 20 30 11 16 - - -
16/06:00am - - - - - S 24 33 13 18 - - -
16/05:30am - - - - - SSW 20 28 11 15 - - -
16/05:00am - - - - - S 22 30 12 16 - - -
16/04:30am - - - - - S 19 28 10 15 - - -
16/04:00am - - - - - SSW 19 24 10 13 - - -
16/03:30am - - - - - SSW 17 24 9 13 - - -
16/03:00am - - - - - SSW 11 19 6 10 - - -
16/02:30am - - - - - CALM 0 0 0 0 - - -
16/02:00am - - - - - CALM 0 0 0 0 - - -
16/01:30am - - - - - N 4 6 2 3 - - -
16/01:00am - - - - - N 7 13 4 7 - - -
16/12:30am - - - - - N 2 4 1 2 - - -
16/12:00am - - - - - N 9 13 5 7 - - -
 
Date/Time
EDT
Temp
°C
App
Temp
°C
Dew
Point
°C
Rel
Hum
%
Delta-T
°C
Wind Press
QNH
hPa
Press
MSL
hPa
Rain since
9am
mm
Dir  Spd
km/h
Gust
km/h
Spd
kts
Gust
kts
15/11:30pm - - - - - N 7 11 4 6 - - -
15/11:00pm - - - - - WNW 4 7 2 4 - - -
15/10:30pm - - - - - S 7 11 4 6 - - -
15/10:00pm - - - - - WNW 11 17 6 9 - - -
15/09:30pm - - - - - NNW 13 20 7 11 - - -
15/09:00pm - - - - - N 9 15 5 8 - - -
15/08:30pm - - - - - N 11 17 6 9 - - -
15/08:00pm - - - - - ENE 15 26 8 14 - - -
15/07:30pm - - - - - NNE 19 24 10 13 - - -
15/07:00pm - - - - - NNE 24 33 13 18 - - -
15/06:30pm - - - - - NNE 22 33 12 18 - - -
15/06:00pm - - - - - NNE 20 30 11 16 - - -
15/05:30pm - - - - - NNE 19 28 10 15 - - -
15/05:00pm - - - - - NE 24 30 13 16 - - -
15/04:30pm - - - - - NE 22 28 12 15 - - -
15/04:00pm - - - - - NE 20 26 11 14 - - -

Other formats

Comma delimited format used in spreadsheet applications
http://www.bom.gov.au/fwo/IDN60801/IDN60801.94780.axf

JavaScript Object Notation format (JSON) in row-major order
http://www.bom.gov.au/fwo/IDN60801/IDN60801.94780.json

Data quality

Most of these data are generated automatically and are frequently updated. Quality checks on data are not normally performed. It is possible for incorrect values to appear. Refer to information at About Latest Weather Observations and please check the disclaimer before using these data.